createdAt,value
2018-11-07T00:00:53.111Z,147.30
2018-11-07T00:01:53.076Z,139.70
2018-11-07T00:02:53.142Z,121.90
2018-11-07T00:03:53.013Z,119.50
2018-11-07T00:04:52.980Z,167.60
2018-11-07T00:05:52.947Z,168.20
2018-11-07T00:06:52.912Z,139.10
2018-11-07T00:07:52.942Z,162.10
2018-11-07T00:08:52.842Z,181.10
2018-11-07T00:09:52.809Z,300.10
2018-11-07T00:10:52.775Z,327.00
2018-11-07T00:11:52.742Z,419.60
2018-11-07T00:12:52.710Z,643.20
2018-11-07T00:13:52.678Z,926.40
2018-11-07T00:14:52.642Z,781.00
2018-11-07T00:15:52.608Z,891.00
2018-11-07T00:16:52.576Z,871.70
2018-11-07T00:17:52.542Z,524.80
2018-11-07T00:18:52.508Z,521.40
2018-11-07T00:19:52.475Z,420.80
2018-11-07T00:20:52.442Z,922.10
2018-11-07T00:21:52.407Z,644.50
2018-11-07T00:22:52.374Z,695.80
2018-11-07T00:23:52.341Z,683.10
2018-11-07T00:24:52.308Z,664.90
2018-11-07T00:25:52.274Z,503.50
2018-11-07T00:26:52.241Z,418.30
2018-11-07T00:27:52.208Z,295.00
2018-11-07T00:28:52.175Z,467.20
2018-11-07T00:29:52.139Z,467.90
2018-11-07T00:30:52.108Z,274.70
2018-11-07T00:31:52.074Z,268.10
2018-11-07T00:32:52.041Z,286.50
2018-11-07T00:33:52.006Z,317.20
2018-11-07T00:34:51.979Z,334.20
2018-11-07T00:35:51.940Z,319.20
2018-11-07T00:36:51.907Z,707.90
2018-11-07T00:37:51.873Z,331.20
2018-11-07T00:38:51.839Z,237.50
2018-11-07T00:39:51.807Z,147.20
2018-11-07T00:40:51.770Z,144.00
2018-11-07T00:41:51.738Z,177.30
2018-11-07T00:42:51.705Z,163.80
2018-11-07T00:43:51.671Z,169.90
2018-11-07T00:44:51.638Z,155.00
2018-11-07T00:45:51.604Z,159.50
2018-11-07T00:46:51.571Z,162.70
2018-11-07T00:47:51.538Z,156.80
2018-11-07T00:48:51.504Z,203.80
2018-11-07T00:49:51.469Z,199.60
2018-11-07T00:50:51.437Z,180.10
2018-11-07T00:51:51.402Z,176.50
2018-11-07T00:52:51.375Z,174.60
2018-11-07T00:53:51.336Z,183.30
2018-11-07T00:54:51.302Z,169.20
2018-11-07T00:55:51.270Z,215.30
2018-11-07T00:56:51.236Z,192.70
2018-11-07T00:57:51.222Z,236.70
2018-11-07T00:58:51.169Z,374.80
2018-11-07T00:59:51.136Z,250.40
2018-11-07T01:00:51.101Z,361.00
2018-11-07T01:01:51.067Z,385.60
2018-11-07T01:02:51.035Z,424.20
2018-11-07T01:03:51.011Z,234.90
2018-11-07T01:04:50.968Z,230.40
2018-11-07T01:05:50.936Z,309.70
2018-11-07T01:06:50.901Z,267.10
2018-11-07T01:07:50.866Z,660.20
2018-11-07T01:08:50.835Z,724.50
2018-11-07T01:09:50.800Z,381.50
2018-11-07T01:10:50.768Z,491.70
2018-11-07T01:11:50.732Z,480.00
2018-11-07T01:12:50.701Z,531.60
2018-11-07T01:13:50.665Z,579.40
2018-11-07T01:14:50.634Z,322.30
2018-11-07T01:15:50.599Z,320.60
2018-11-07T01:16:50.642Z,291.50
2018-11-07T01:17:50.532Z,213.50
2018-11-07T01:18:50.498Z,277.50
2018-11-07T01:19:50.467Z,221.10
2018-11-07T01:20:50.433Z,255.10
2018-11-07T01:21:50.398Z,215.20
2018-11-07T01:22:50.364Z,226.90
2018-11-07T01:23:50.331Z,377.10
2018-11-07T01:24:50.300Z,814.40
2018-11-07T01:25:50.264Z,494.10
2018-11-07T01:26:50.229Z,489.30
2018-11-07T01:27:50.197Z,382.80
2018-11-07T01:28:50.163Z,262.90
2018-11-07T01:29:50.134Z,256.50
2018-11-07T01:30:50.098Z,241.90
2018-11-07T01:31:50.064Z,212.00
2018-11-07T01:32:50.030Z,423.20
2018-11-07T01:33:49.997Z,310.00
2018-11-07T01:34:49.965Z,609.10
2018-11-07T01:35:49.930Z,710.80
2018-11-07T01:36:49.896Z,462.60
2018-11-07T01:37:49.861Z,278.80
2018-11-07T01:38:49.828Z,428.10
2018-11-07T01:39:49.796Z,399.50
2018-11-07T01:40:49.767Z,316.00
2018-11-07T01:41:49.761Z,1205.60
2018-11-07T01:42:49.694Z,513.20
2018-11-07T01:43:49.663Z,353.40
2018-11-07T01:44:49.629Z,379.10
2018-11-07T01:45:49.595Z,275.50
2018-11-07T01:46:49.565Z,548.40
2018-11-07T01:47:49.530Z,783.50
2018-11-07T01:48:49.496Z,641.70
2018-11-07T01:49:49.461Z,733.00
2018-11-07T01:50:49.427Z,1308.10
2018-11-07T01:51:49.396Z,1192.30
2018-11-07T01:52:49.361Z,854.10
2018-11-07T01:53:49.326Z,765.90
2018-11-07T01:54:49.295Z,315.20
2018-11-07T01:55:49.262Z,305.00
2018-11-07T01:56:49.232Z,436.60
2018-11-07T01:57:49.193Z,368.70
2018-11-07T01:58:49.160Z,253.20
2018-11-07T01:59:49.127Z,287.70
2018-11-07T02:00:49.095Z,338.30
2018-11-07T02:01:49.060Z,310.70
2018-11-07T02:02:49.030Z,532.60
2018-11-07T02:03:48.994Z,452.10
2018-11-07T02:04:48.961Z,348.10
2018-11-07T02:05:48.927Z,467.30
2018-11-07T02:06:48.893Z,405.00
2018-11-07T02:07:48.861Z,729.10
2018-11-07T02:08:48.827Z,722.60
2018-11-07T02:09:48.793Z,620.90
2018-11-07T02:10:48.760Z,483.40
2018-11-07T02:11:48.728Z,790.90
2018-11-07T02:12:48.696Z,1124.60
2018-11-07T02:13:48.658Z,1168.20
2018-11-07T02:14:48.625Z,1417.00
2018-11-07T02:15:48.593Z,634.00
2018-11-07T02:16:48.561Z,945.80
2018-11-07T02:17:48.524Z,790.10
2018-11-07T02:18:48.493Z,1199.20
2018-11-07T02:19:48.459Z,1427.20
2018-11-07T02:20:48.427Z,791.70
2018-11-07T02:21:48.396Z,1079.00
2018-11-07T02:22:48.359Z,698.90
2018-11-07T02:23:48.326Z,464.00
2018-11-07T02:24:48.293Z,971.50
2018-11-07T02:25:48.259Z,849.00
2018-11-07T02:26:48.226Z,1188.80
2018-11-07T02:27:48.193Z,1058.80
2018-11-07T02:28:48.162Z,712.70
2018-11-07T02:29:48.126Z,574.70
2018-11-07T02:30:48.101Z,539.40
2018-11-07T02:31:48.062Z,704.80
2018-11-07T02:32:48.032Z,724.70
2018-11-07T02:33:47.994Z,822.70
2018-11-07T02:34:47.961Z,754.30
2018-11-07T02:35:47.935Z,814.80
2018-11-07T02:36:47.988Z,1057.00
2018-11-07T02:37:47.863Z,1004.10
2018-11-07T02:38:47.831Z,1375.10
2018-11-07T02:39:47.805Z,1356.00
2018-11-07T02:40:47.765Z,1354.90
2018-11-07T02:41:47.754Z,517.00
2018-11-07T02:42:47.700Z,717.20
2018-11-07T02:43:47.665Z,916.90
2018-11-07T02:44:47.632Z,1102.30
2018-11-07T02:45:47.601Z,1161.10
2018-11-07T02:46:47.567Z,1252.10
2018-11-07T02:47:47.534Z,1277.80
2018-11-07T02:48:47.502Z,1505.70
2018-11-07T02:49:47.467Z,1325.10
2018-11-07T02:50:47.438Z,1092.00
2018-11-07T02:51:47.403Z,576.40
2018-11-07T02:52:47.371Z,882.90
2018-11-07T02:53:47.338Z,882.20
2018-11-07T02:54:47.304Z,1368.10
2018-11-07T02:55:47.275Z,1353.10
2018-11-07T02:56:47.246Z,1577.10
2018-11-07T02:57:47.206Z,1035.60
2018-11-07T02:58:47.176Z,1071.80
2018-11-07T02:59:47.141Z,1344.70
2018-11-07T03:00:47.108Z,1492.30
2018-11-07T03:01:47.074Z,1286.90
2018-11-07T03:02:47.042Z,918.60
2018-11-07T03:03:47.010Z,947.40
2018-11-07T03:04:46.977Z,847.20
2018-11-07T03:05:46.947Z,869.40
2018-11-07T03:06:46.912Z,852.90
2018-11-07T03:07:46.878Z,1098.20
2018-11-07T03:08:46.846Z,1601.50
2018-11-07T03:09:46.812Z,1511.20
2018-11-07T03:10:46.933Z,1080.50
2018-11-07T03:11:46.747Z,708.50
2018-11-07T03:12:46.716Z,983.40
2018-11-07T03:13:46.685Z,926.40
2018-11-07T03:14:46.648Z,768.20
2018-11-07T03:15:46.617Z,1274.40
2018-11-07T03:16:46.585Z,887.80
2018-11-07T03:17:46.552Z,1045.40
2018-11-07T03:18:46.517Z,1053.90
2018-11-07T03:19:46.486Z,952.80
2018-11-07T03:20:46.453Z,1290.90
2018-11-07T03:21:46.419Z,1357.50
2018-11-07T03:22:46.394Z,1048.40
2018-11-07T03:23:46.356Z,836.60
2018-11-07T03:24:46.320Z,691.60
2018-11-07T03:25:46.289Z,1111.80
2018-11-07T03:26:46.254Z,1125.90
2018-11-07T03:27:46.221Z,1267.30
2018-11-07T03:28:46.189Z,1142.50
2018-11-07T03:29:46.155Z,1151.60
2018-11-07T03:30:46.127Z,1108.00
2018-11-07T03:31:46.099Z,748.10
2018-11-07T03:32:46.059Z,1071.70
2018-11-07T03:33:46.023Z,1213.70
2018-11-07T03:34:45.989Z,1175.90
2018-11-07T03:35:45.957Z,642.90
2018-11-07T03:36:45.924Z,718.80
2018-11-07T03:37:45.890Z,718.90
2018-11-07T03:38:45.858Z,580.70
2018-11-07T03:39:45.861Z,550.10
2018-11-07T03:40:45.796Z,550.50
2018-11-07T03:41:45.762Z,428.20
2018-11-07T03:42:45.735Z,425.90
2018-11-07T03:43:45.692Z,755.20
2018-11-07T03:44:45.658Z,570.00
2018-11-07T03:45:45.626Z,616.20
2018-11-07T03:46:45.592Z,465.00
2018-11-07T03:47:45.559Z,610.70
2018-11-07T03:48:45.528Z,475.40
2018-11-07T03:49:45.494Z,297.50
2018-11-07T03:50:45.460Z,326.00
2018-11-07T03:51:45.427Z,241.40
2018-11-07T03:52:45.403Z,270.90
2018-11-07T03:53:45.376Z,344.90
2018-11-07T03:54:45.327Z,452.20
2018-11-07T03:55:45.295Z,316.00
2018-11-07T03:56:45.262Z,282.80
2018-11-07T03:57:45.231Z,383.70
2018-11-07T03:58:45.195Z,303.70
2018-11-07T03:59:45.162Z,439.60
2018-11-07T04:00:45.129Z,837.50
2018-11-07T04:01:45.095Z,840.10
2018-11-07T04:02:45.063Z,1186.70
2018-11-07T04:03:45.031Z,1237.70
2018-11-07T04:04:44.998Z,1042.40
2018-11-07T04:05:44.964Z,1106.30
2018-11-07T04:06:44.931Z,1215.40
2018-11-07T04:07:44.907Z,1270.90
2018-11-07T04:08:44.866Z,1233.60
2018-11-07T04:09:44.832Z,947.40
2018-11-07T04:10:44.799Z,1193.00
2018-11-07T04:11:44.768Z,1218.90
2018-11-07T04:12:44.735Z,1037.40
2018-11-07T04:13:44.705Z,1132.20
2018-11-07T04:14:44.668Z,1220.50
2018-11-07T04:15:44.637Z,1239.90
2018-11-07T04:16:44.603Z,925.40
2018-11-07T04:17:44.569Z,884.00
2018-11-07T04:18:44.537Z,679.40
2018-11-07T04:19:44.503Z,1010.00
2018-11-07T04:20:44.472Z,1056.70
2018-11-07T04:21:44.438Z,1187.60
2018-11-07T04:22:44.407Z,782.50
2018-11-07T04:23:44.374Z,703.90
2018-11-07T04:24:44.341Z,1001.70
2018-11-07T04:25:44.307Z,1452.00
2018-11-07T04:26:44.275Z,1075.50
2018-11-07T04:27:44.243Z,1317.00
2018-11-07T04:28:44.230Z,1356.70
2018-11-07T04:29:44.179Z,1114.80
2018-11-07T04:30:44.143Z,1361.50
2018-11-07T04:31:44.110Z,1532.60
2018-11-07T04:32:44.083Z,1466.00
2018-11-07T04:33:44.067Z,1357.20
2018-11-07T04:34:44.015Z,1343.90
2018-11-07T04:35:43.982Z,1237.80
2018-11-07T04:36:43.948Z,1176.90
2018-11-07T04:37:43.915Z,770.30
2018-11-07T04:38:43.883Z,805.40
2018-11-07T04:39:43.850Z,708.40
2018-11-07T04:40:43.819Z,834.70
2018-11-07T04:41:43.784Z,711.10
2018-11-07T04:42:43.752Z,1254.00
2018-11-07T04:43:43.721Z,1268.80
2018-11-07T04:44:43.688Z,1401.40
2018-11-07T04:45:43.655Z,1335.00
2018-11-07T04:46:43.621Z,825.20
2018-11-07T04:47:43.592Z,718.60
2018-11-07T04:48:43.558Z,1245.00
2018-11-07T04:49:43.525Z,1168.30
2018-11-07T04:50:43.492Z,1120.10
2018-11-07T04:51:43.462Z,1258.20
2018-11-07T04:52:43.427Z,821.20
2018-11-07T04:53:43.401Z,820.10
2018-11-07T04:54:43.364Z,1053.70
2018-11-07T04:55:43.331Z,822.70
2018-11-07T04:56:43.299Z,923.50
2018-11-07T04:57:43.266Z,812.80
2018-11-07T04:58:43.234Z,809.10
2018-11-07T04:59:43.200Z,877.10
2018-11-07T05:00:43.170Z,848.70
2018-11-07T05:01:43.136Z,937.60
2018-11-07T05:02:43.104Z,693.90
2018-11-07T05:03:43.072Z,620.90
2018-11-07T05:04:43.039Z,631.20
2018-11-07T05:05:43.007Z,778.60
2018-11-07T05:06:42.975Z,1282.20
2018-11-07T05:07:42.942Z,1407.00
2018-11-07T05:08:42.991Z,1402.50
2018-11-07T05:09:42.876Z,1386.60
2018-11-07T05:10:42.846Z,1446.90
2018-11-07T05:11:42.813Z,1438.00
2018-11-07T05:12:42.785Z,1332.30
2018-11-07T05:13:42.748Z,1385.40
2018-11-07T05:14:42.716Z,997.40
2018-11-07T05:15:42.685Z,731.70
2018-11-07T05:16:42.653Z,766.80
2018-11-07T05:17:42.619Z,728.60
2018-11-07T05:18:42.586Z,991.60
2018-11-07T05:19:42.667Z,866.50
2018-11-07T05:20:42.523Z,880.00
2018-11-07T05:21:42.489Z,1054.00
2018-11-07T05:22:42.457Z,1334.50
2018-11-07T05:23:42.425Z,1354.50
2018-11-07T05:24:42.392Z,1293.80
2018-11-07T05:25:42.360Z,1297.50
2018-11-07T05:26:42.328Z,1251.70
2018-11-07T05:27:42.295Z,1040.20
2018-11-07T05:28:42.264Z,919.20
2018-11-07T05:29:42.233Z,882.00
2018-11-07T05:30:42.199Z,814.50
2018-11-07T05:31:42.200Z,746.90
2018-11-07T05:32:42.134Z,597.60
2018-11-07T05:33:42.100Z,914.10
2018-11-07T05:34:42.069Z,1059.20
2018-11-07T05:35:42.036Z,1034.60
2018-11-07T05:36:42.004Z,1190.90
2018-11-07T05:37:41.972Z,1147.90
2018-11-07T05:38:41.940Z,1203.60
2018-11-07T05:39:41.907Z,1086.50
2018-11-07T05:40:41.874Z,1244.70
2018-11-07T05:41:41.842Z,1153.80
2018-11-07T05:42:41.811Z,1180.90
2018-11-07T05:43:41.777Z,1152.70
2018-11-07T05:44:41.748Z,390.00
2018-11-07T05:45:41.713Z,897.70
2018-11-07T05:46:41.680Z,1271.70
2018-11-07T05:47:41.651Z,1059.70
2018-11-07T05:48:41.616Z,1119.70
2018-11-07T05:49:41.583Z,942.60
2018-11-07T05:50:41.551Z,1047.70
2018-11-07T05:51:41.517Z,1143.80
2018-11-07T05:52:41.486Z,1052.20
2018-11-07T05:53:41.467Z,867.50
2018-11-07T05:54:41.421Z,597.40
2018-11-07T05:55:41.389Z,675.60
2018-11-07T05:56:41.358Z,580.30
2018-11-07T05:57:41.324Z,483.80
2018-11-07T05:58:41.293Z,620.10
2018-11-07T05:59:41.259Z,740.70
2018-11-07T06:00:41.227Z,508.30
2018-11-07T06:01:41.194Z,815.10
2018-11-07T06:02:41.166Z,969.50
2018-11-07T06:03:41.131Z,1224.70
2018-11-07T06:04:41.098Z,1276.30
2018-11-07T06:05:41.067Z,1184.00
2018-11-07T06:06:41.032Z,1061.30
2018-11-07T06:07:41.002Z,834.90
2018-11-07T06:08:40.970Z,683.70
2018-11-07T06:09:40.937Z,1073.80
2018-11-07T06:10:40.905Z,866.30
2018-11-07T06:11:40.873Z,768.10
2018-11-07T06:12:40.840Z,865.90
2018-11-07T06:13:40.811Z,1242.20
2018-11-07T06:14:40.775Z,1207.80
2018-11-07T06:15:40.744Z,1173.90
2018-11-07T06:16:40.713Z,962.10
2018-11-07T06:17:40.677Z,697.30
2018-11-07T06:18:40.648Z,490.20
2018-11-07T06:19:40.617Z,367.00
2018-11-07T06:20:40.582Z,790.90
2018-11-07T06:21:40.550Z,735.40
2018-11-07T06:22:40.518Z,549.70
2018-11-07T06:23:40.485Z,791.60
2018-11-07T06:24:40.534Z,676.50
2018-11-07T06:25:40.420Z,488.80
2018-11-07T06:26:40.389Z,529.70
2018-11-07T06:27:40.357Z,423.30
2018-11-07T06:28:40.324Z,509.40
2018-11-07T06:29:40.292Z,882.80
2018-11-07T06:30:40.260Z,1220.20
2018-11-07T06:31:40.227Z,1070.20
2018-11-07T06:32:40.198Z,931.50
2018-11-07T06:33:40.162Z,1142.00
2018-11-07T06:34:40.131Z,980.60
2018-11-07T06:35:40.099Z,953.20
2018-11-07T06:36:40.066Z,791.10
2018-11-07T06:37:40.035Z,452.10
2018-11-07T06:38:40.005Z,864.70
2018-11-07T06:39:39.968Z,863.80
2018-11-07T06:40:39.936Z,831.80
2018-11-07T06:41:39.904Z,780.50
2018-11-07T06:42:39.872Z,1221.40
2018-11-07T06:43:39.840Z,1163.60
2018-11-07T06:44:39.853Z,581.60
2018-11-07T06:45:39.775Z,329.50
2018-11-07T06:46:39.742Z,340.20
2018-11-07T06:47:39.710Z,305.50
2018-11-07T06:48:39.678Z,898.00
2018-11-07T06:49:39.647Z,773.10
2018-11-07T06:50:39.613Z,778.00
2018-11-07T06:51:39.580Z,1051.50
2018-11-07T06:52:39.550Z,1187.40
2018-11-07T06:53:39.516Z,1214.20
2018-11-07T06:54:39.491Z,923.30
2018-11-07T06:55:39.462Z,632.40
2018-11-07T06:56:39.418Z,745.60
2018-11-07T06:57:39.385Z,815.20
2018-11-07T06:58:39.352Z,829.60
2018-11-07T06:59:39.321Z,793.00
2018-11-07T07:00:39.298Z,241.00
2018-11-07T07:01:39.255Z,393.00
2018-11-07T07:02:39.223Z,463.10
2018-11-07T07:03:39.191Z,348.40
2018-11-07T07:04:39.158Z,587.20
2018-11-07T07:05:39.125Z,319.90
2018-11-07T07:06:39.100Z,414.10
2018-11-07T07:07:39.061Z,475.00
2018-11-07T07:08:39.030Z,495.50
2018-11-07T07:09:38.994Z,662.00
2018-11-07T07:10:38.963Z,370.20
2018-11-07T07:11:38.929Z,825.70
2018-11-07T07:12:38.898Z,880.50
2018-11-07T07:13:38.867Z,591.40
2018-11-07T07:14:38.832Z,574.60
2018-11-07T07:15:38.800Z,527.00
2018-11-07T07:16:38.767Z,547.40
2018-11-07T07:17:38.795Z,447.00
2018-11-07T07:18:38.703Z,603.60
2018-11-07T07:19:38.670Z,664.80
2018-11-07T07:20:38.637Z,646.10
2018-11-07T07:21:38.609Z,674.70
2018-11-07T07:22:38.577Z,898.60
2018-11-07T07:23:38.542Z,1045.10
2018-11-07T07:24:38.509Z,924.60
2018-11-07T07:25:38.591Z,903.00
2018-11-07T07:26:38.443Z,850.60
2018-11-07T07:27:38.412Z,730.60
2018-11-07T07:28:38.378Z,804.00
2018-11-07T07:29:38.347Z,534.00
2018-11-07T07:30:38.411Z,651.90
2018-11-07T07:31:38.281Z,459.30
2018-11-07T07:32:38.249Z,388.90
2018-11-07T07:33:38.237Z,384.70
2018-11-07T07:34:38.186Z,537.10
2018-11-07T07:35:38.154Z,831.10
2018-11-07T07:36:38.121Z,896.60
2018-11-07T07:37:38.090Z,818.80
2018-11-07T07:38:38.062Z,662.60
2018-11-07T07:39:38.026Z,804.60
2018-11-07T07:40:38.000Z,544.50
2018-11-07T07:41:37.961Z,659.70
2018-11-07T07:42:37.929Z,887.80
2018-11-07T07:43:37.899Z,904.60
2018-11-07T07:44:37.868Z,833.00
2018-11-07T07:45:37.916Z,842.20
2018-11-07T07:46:37.805Z,713.00
2018-11-07T07:47:37.771Z,694.50
2018-11-07T07:48:37.740Z,690.50
2018-11-07T07:49:37.708Z,620.20
2018-11-07T07:50:37.674Z,684.30
2018-11-07T07:51:37.680Z,484.30
2018-11-07T07:52:37.613Z,895.00
2018-11-07T07:53:37.582Z,559.20
2018-11-07T07:54:37.549Z,688.20
2018-11-07T07:55:37.519Z,702.00
2018-11-07T07:56:37.487Z,529.40
2018-11-07T07:57:37.454Z,670.40
2018-11-07T07:58:37.422Z,547.60
2018-11-07T07:59:37.397Z,781.50
2018-11-07T08:00:37.361Z,495.30
2018-11-07T08:01:37.330Z,671.60
2018-11-07T08:02:37.298Z,397.10
2018-11-07T08:03:37.266Z,773.00
2018-11-07T08:04:37.235Z,875.00
2018-11-07T08:05:37.203Z,756.70
2018-11-07T08:06:37.172Z,703.70
2018-11-07T08:07:37.144Z,410.60
2018-11-07T08:08:37.111Z,807.90
2018-11-07T08:09:37.080Z,749.10
2018-11-07T08:10:37.049Z,594.50
2018-11-07T08:11:37.018Z,703.10
2018-11-07T08:12:36.991Z,874.60
2018-11-07T08:13:36.993Z,738.50
2018-11-07T08:14:36.924Z,763.00
2018-11-07T08:15:36.893Z,852.40
2018-11-07T08:16:36.862Z,642.00
2018-11-07T08:17:36.830Z,845.40
2018-11-07T08:18:36.800Z,663.70
2018-11-07T08:19:36.771Z,703.30
2018-11-07T08:20:36.742Z,725.60
2018-11-07T08:21:36.706Z,1001.20
2018-11-07T08:22:36.677Z,585.40
2018-11-07T08:23:36.646Z,563.60
2018-11-07T08:24:36.616Z,515.40
2018-11-07T08:25:36.585Z,528.10
2018-11-07T08:26:36.554Z,387.70
2018-11-07T08:27:36.522Z,451.50
2018-11-07T08:28:36.493Z,636.20
2018-11-07T08:29:36.465Z,482.90
2018-11-07T08:30:36.434Z,631.20
2018-11-07T08:31:36.402Z,584.90
2018-11-07T08:32:36.372Z,474.00
2018-11-07T08:33:36.342Z,507.00
2018-11-07T08:34:36.311Z,419.80
2018-11-07T08:35:36.281Z,502.30
2018-11-07T08:36:36.251Z,491.00
2018-11-07T08:37:36.219Z,440.20
2018-11-07T08:38:36.190Z,463.50
2018-11-07T08:39:36.161Z,386.40
2018-11-07T08:40:36.131Z,416.30
2018-11-07T08:41:36.101Z,423.80
2018-11-07T08:42:36.069Z,387.20
2018-11-07T08:43:36.043Z,367.70
2018-11-07T08:44:36.011Z,208.90
2018-11-07T08:45:35.979Z,192.10
2018-11-07T08:46:35.951Z,205.50
2018-11-07T08:47:35.921Z,195.70
2018-11-07T08:48:35.891Z,250.30
2018-11-07T08:49:35.863Z,151.00
2018-11-07T08:50:35.832Z,169.60
2018-11-07T08:51:35.802Z,192.80
2018-11-07T08:52:35.924Z,154.50
2018-11-07T08:53:35.750Z,178.90
2018-11-07T08:54:35.716Z,165.30
2018-11-07T08:55:35.685Z,114.70
2018-11-07T08:56:35.658Z,116.20
2018-11-07T08:57:35.628Z,104.80
2018-11-07T08:58:35.600Z,85.50
2018-11-07T08:59:35.570Z,102.50
2018-11-07T09:00:35.542Z,101.70
2018-11-07T09:02:35.485Z,84.30
2018-11-07T09:03:35.456Z,71.30
2018-11-07T09:04:35.430Z,75.60
2018-11-07T09:05:35.401Z,79.40
2018-11-07T09:06:35.374Z,77.50
2018-11-07T09:07:35.343Z,65.30
2018-11-07T09:08:35.316Z,60.70
2018-11-07T09:09:35.292Z,60.10
2018-11-07T09:10:35.261Z,73.40
2018-11-07T09:11:35.232Z,71.50
2018-11-07T09:12:35.205Z,64.90
2018-11-07T09:13:35.177Z,64.50
2018-11-07T09:14:35.149Z,55.10
2018-11-07T09:15:35.121Z,56.10
2018-11-07T09:16:35.094Z,59.30
2018-11-07T09:17:35.067Z,56.90
2018-11-07T09:18:35.040Z,50.40
2018-11-07T09:19:35.027Z,50.50
2018-11-07T09:20:35.013Z,50.80
2018-11-07T09:21:34.959Z,50.10
2018-11-07T09:22:34.932Z,46.30
2018-11-07T09:23:34.906Z,47.90
2018-11-07T09:24:34.949Z,47.20
2018-11-07T09:25:34.853Z,45.70
2018-11-07T09:26:34.827Z,44.60
2018-11-07T09:27:34.834Z,53.30
2018-11-07T09:28:34.775Z,42.20
2018-11-07T09:29:34.747Z,41.90
2018-11-07T09:30:34.722Z,43.40
2018-11-07T09:31:34.696Z,39.70
2018-11-07T09:32:34.671Z,43.50
2018-11-07T09:33:34.644Z,42.00
2018-11-07T09:34:34.619Z,43.30
2018-11-07T09:35:34.593Z,43.50
2018-11-07T09:36:34.568Z,40.40
2018-11-07T09:37:34.542Z,42.10
2018-11-07T09:38:34.515Z,40.20
2018-11-07T09:39:34.533Z,41.60
2018-11-07T09:40:34.464Z,41.50
2018-11-07T09:41:34.436Z,39.00
2018-11-07T09:42:34.410Z,37.70
2018-11-07T09:43:34.386Z,38.70
2018-11-07T09:44:34.361Z,38.30
2018-11-07T09:45:34.334Z,35.80
2018-11-07T09:46:34.309Z,36.90
2018-11-07T09:47:34.414Z,39.30
2018-11-07T09:48:34.258Z,36.90
2018-11-07T09:49:34.233Z,33.90
2018-11-07T09:50:34.207Z,34.60
2018-11-07T09:51:34.182Z,36.50
2018-11-07T09:52:34.157Z,34.80
2018-11-07T09:53:34.156Z,35.60
2018-11-07T09:54:34.106Z,33.50
2018-11-07T09:55:34.081Z,31.70
2018-11-07T09:56:34.056Z,31.70
2018-11-07T09:57:34.030Z,30.70
2018-11-07T09:58:34.004Z,31.00
2018-11-07T09:59:34.095Z,30.10
2018-11-07T10:00:33.953Z,32.00
2018-11-07T10:01:33.931Z,31.10
2018-11-07T10:02:33.903Z,34.50
2018-11-07T10:03:33.878Z,31.30
2018-11-07T10:04:33.854Z,31.10
2018-11-07T10:05:33.866Z,31.30
2018-11-07T10:06:33.855Z,30.60
2018-11-07T10:07:33.780Z,30.80
2018-11-07T10:08:33.754Z,30.20
2018-11-07T10:09:33.727Z,30.80
2018-11-07T10:10:33.701Z,29.50
2018-11-07T10:11:33.677Z,28.60
2018-11-07T10:12:33.714Z,29.20
2018-11-07T10:13:33.626Z,28.30
2018-11-07T10:14:33.602Z,32.00
2018-11-07T10:15:33.576Z,30.20
2018-11-07T10:16:33.551Z,30.00
2018-11-07T10:17:33.526Z,26.70
2018-11-07T10:18:33.502Z,26.10
2018-11-07T10:19:33.476Z,26.60
2018-11-07T10:20:33.533Z,26.50
2018-11-07T10:21:33.425Z,26.80
2018-11-07T10:22:33.404Z,25.60
2018-11-07T10:23:33.377Z,26.70
2018-11-07T10:24:33.351Z,29.30
2018-11-07T10:25:33.328Z,27.00
2018-11-07T10:26:33.365Z,27.30
2018-11-07T10:27:33.600Z,26.50
2018-11-07T10:28:33.479Z,26.00
2018-11-07T10:29:33.447Z,27.90
2018-11-07T10:30:33.333Z,27.10
2018-11-07T10:31:33.177Z,25.10
2018-11-07T10:32:33.154Z,26.20
2018-11-07T10:33:33.128Z,25.90
2018-11-07T10:34:33.161Z,25.30
2018-11-07T10:35:33.080Z,27.10
2018-11-07T10:36:33.056Z,25.90
2018-11-07T10:37:33.029Z,24.80
2018-11-07T10:38:33.144Z,24.80
2018-11-07T10:39:33.008Z,25.60
2018-11-07T10:40:32.955Z,24.70
2018-11-07T10:41:32.934Z,25.40
2018-11-07T10:42:32.906Z,23.90
2018-11-07T10:43:32.881Z,22.10
2018-11-07T10:44:32.981Z,22.30
2018-11-07T10:45:32.832Z,23.60
2018-11-07T10:46:32.808Z,22.80
2018-11-07T10:47:32.783Z,22.90
2018-11-07T10:48:32.756Z,23.90
2018-11-07T10:49:32.732Z,24.40
2018-11-07T10:50:32.709Z,23.50
2018-11-07T10:51:32.684Z,22.80
2018-11-07T10:52:32.661Z,21.20
2018-11-07T10:53:32.635Z,24.50
2018-11-07T10:54:32.611Z,22.70
2018-11-07T10:55:32.588Z,21.90
2018-11-07T10:56:32.561Z,23.20
2018-11-07T10:57:32.538Z,22.10
2018-11-07T10:58:32.515Z,23.10
2018-11-07T10:59:32.487Z,21.20
2018-11-07T11:00:32.464Z,22.50
2018-11-07T11:01:32.437Z,20.20
2018-11-07T11:02:32.414Z,22.20
2018-11-07T11:03:32.390Z,20.50
2018-11-07T11:04:32.370Z,21.40
2018-11-07T11:05:32.340Z,21.90
2018-11-07T11:06:32.316Z,20.40
2018-11-07T11:07:32.292Z,19.70
2018-11-07T11:08:32.269Z,20.10
2018-11-07T11:09:32.243Z,20.10
2018-11-07T11:10:32.218Z,21.10
2018-11-07T11:11:32.195Z,21.10
2018-11-07T11:12:32.170Z,19.00
2018-11-07T11:13:32.144Z,19.60
2018-11-07T11:14:32.121Z,20.10
2018-11-07T11:15:32.096Z,21.00
2018-11-07T11:16:32.074Z,20.60
2018-11-07T11:17:32.118Z,19.20
2018-11-07T11:18:32.023Z,19.40
2018-11-07T11:19:31.999Z,19.30
2018-11-07T11:20:31.975Z,19.50
2018-11-07T11:21:31.949Z,19.60
2018-11-07T11:22:31.926Z,20.20
2018-11-07T11:23:31.906Z,19.00
2018-11-07T11:24:31.881Z,18.30
2018-11-07T11:25:31.851Z,17.60
2018-11-07T11:26:31.830Z,19.10
2018-11-07T11:27:31.885Z,19.30
2018-11-07T11:28:31.780Z,18.50
2018-11-07T11:29:31.756Z,18.40
2018-11-07T11:30:31.731Z,19.70
2018-11-07T11:31:31.730Z,17.90
2018-11-07T11:32:31.682Z,18.10
2018-11-07T11:33:31.657Z,20.70
2018-11-07T11:34:31.743Z,19.00
2018-11-07T11:35:31.609Z,18.50
2018-11-07T11:36:31.586Z,19.00
2018-11-07T11:37:31.557Z,19.40
2018-11-07T11:38:31.533Z,18.40
2018-11-07T11:39:31.510Z,20.40
2018-11-07T11:40:31.502Z,17.70
2018-11-07T11:41:31.459Z,18.10
2018-11-07T11:42:31.435Z,17.80
2018-11-07T11:43:31.411Z,17.00
2018-11-07T11:44:31.385Z,17.00
2018-11-07T11:45:31.361Z,18.10
2018-11-07T11:46:31.339Z,18.40
2018-11-07T11:47:31.311Z,19.40
2018-11-07T11:48:31.288Z,17.70
2018-11-07T11:49:31.261Z,16.70
2018-11-07T11:50:31.235Z,17.40
2018-11-07T11:51:31.212Z,17.80
2018-11-07T11:52:31.188Z,16.60
2018-11-07T11:53:31.163Z,18.90
2018-11-07T11:54:31.137Z,18.10
2018-11-07T11:55:31.114Z,16.00
2018-11-07T11:56:31.091Z,16.60
2018-11-07T11:57:31.066Z,16.10
2018-11-07T11:58:31.039Z,17.60
2018-11-07T11:59:31.135Z,15.80
2018-11-07T12:00:31.051Z,15.60
2018-11-07T12:01:30.965Z,15.50
2018-11-07T12:02:30.945Z,16.00
2018-11-07T12:03:30.917Z,15.60
2018-11-07T12:04:30.892Z,18.20
2018-11-07T12:05:30.867Z,15.70
2018-11-07T12:06:30.866Z,15.20
2018-11-07T12:07:30.821Z,15.00
2018-11-07T12:08:30.902Z,15.30
2018-11-07T12:09:30.770Z,15.50
2018-11-07T12:10:30.746Z,16.30
2018-11-07T12:11:30.722Z,17.30
2018-11-07T12:12:30.696Z,17.00
2018-11-07T12:13:30.709Z,16.90
2018-11-07T12:14:30.650Z,16.40
2018-11-07T12:15:30.714Z,22.10
2018-11-07T12:16:30.600Z,17.20
2018-11-07T12:17:30.576Z,15.50
2018-11-07T12:18:30.551Z,16.20
2018-11-07T12:19:30.526Z,16.50
2018-11-07T12:20:30.502Z,16.00
2018-11-07T12:21:30.476Z,16.80
2018-11-07T12:22:30.452Z,26.90
2018-11-07T12:23:30.428Z,29.50
2018-11-07T12:24:30.404Z,31.70
2018-11-07T12:25:30.379Z,33.00
2018-11-07T12:26:30.353Z,32.60
2018-11-07T12:27:30.331Z,33.00
2018-11-07T12:28:30.307Z,31.90
2018-11-07T12:29:30.281Z,30.90
2018-11-07T12:30:30.255Z,33.20
2018-11-07T12:31:30.231Z,34.10